createdAt,value
2023-02-08T00:00:00.474Z,90.69
2023-02-08T00:02:27.977Z,91.17
2023-02-08T00:04:55.458Z,90.60
2023-02-08T00:07:22.893Z,90.62
2023-02-08T00:09:50.347Z,89.59
2023-02-08T00:12:19.202Z,89.61
2023-02-08T00:14:46.680Z,91.37
2023-02-08T00:17:14.142Z,90.17
2023-02-08T00:19:41.734Z,90.40
2023-02-08T00:22:09.205Z,90.56
2023-02-08T00:24:36.692Z,88.45
2023-02-08T00:27:04.215Z,89.45
2023-02-08T00:29:33.510Z,90.18
2023-02-08T00:32:01.221Z,89.48
2023-02-08T00:34:28.737Z,88.71
2023-02-08T00:36:56.189Z,88.29
2023-02-08T00:39:24.525Z,86.97
2023-02-08T00:41:51.976Z,87.49
2023-02-08T00:44:19.580Z,87.81
2023-02-08T00:46:48.470Z,88.27
2023-02-08T00:49:17.143Z,90.53
2023-02-08T00:51:44.598Z,91.39
2023-02-08T00:54:14.952Z,90.97
2023-02-08T00:56:42.575Z,90.69
2023-02-08T00:59:10.029Z,89.24
2023-02-08T01:01:38.176Z,89.25
2023-02-08T01:04:07.791Z,85.98
2023-02-08T01:06:35.363Z,86.59
2023-02-08T01:09:02.806Z,87.12
2023-02-08T01:11:30.297Z,86.75
2023-02-08T01:13:59.290Z,85.99
2023-02-08T01:16:28.640Z,85.28
2023-02-08T01:18:57.627Z,87.21
2023-02-08T01:21:28.645Z,86.38
2023-02-08T01:23:56.323Z,85.46
2023-02-08T01:26:25.807Z,84.58
2023-02-08T01:28:54.436Z,86.15
2023-02-08T01:31:24.121Z,84.09
2023-02-08T01:33:52.275Z,84.75
2023-02-08T01:36:20.238Z,85.75
2023-02-08T01:38:49.407Z,85.34
2023-02-08T01:41:21.000Z,85.29
2023-02-08T01:44:05.447Z,86.41
2023-02-08T01:46:34.446Z,85.32
2023-02-08T01:49:06.214Z,88.15
2023-02-08T01:51:37.478Z,88.61
2023-02-08T01:54:10.235Z,87.50
2023-02-08T01:56:41.138Z,87.83
2023-02-08T01:59:14.078Z,88.52
2023-02-08T02:01:43.601Z,87.15
2023-02-08T02:04:11.302Z,86.55
2023-02-08T02:06:44.581Z,88.13
2023-02-08T02:09:19.227Z,89.09
2023-02-08T02:11:46.971Z,88.03
2023-02-08T02:14:14.818Z,86.13
2023-02-08T02:16:42.316Z,85.06
2023-02-08T02:19:20.084Z,87.98
2023-02-08T02:21:58.554Z,88.16
2023-02-08T02:24:52.609Z,88.08
2023-02-08T02:27:44.925Z,86.85
2023-02-08T02:30:45.230Z,87.25
2023-02-08T02:33:42.136Z,90.41
2023-02-08T02:36:18.975Z,89.91
2023-02-08T02:39:02.702Z,89.04
2023-02-08T02:41:57.927Z,87.90
2023-02-08T02:44:32.602Z,87.57
2023-02-08T02:47:07.741Z,85.79
2023-02-08T02:49:40.220Z,87.42
2023-02-08T02:52:13.409Z,88.92
2023-02-08T02:54:46.351Z,87.93
2023-02-08T02:57:19.006Z,85.64
2023-02-08T02:59:47.557Z,84.15
2023-02-08T03:02:15.678Z,85.80
2023-02-08T03:04:55.598Z,87.38
2023-02-08T03:07:38.307Z,89.83
2023-02-08T03:10:15.716Z,90.44
2023-02-08T03:12:52.785Z,89.23
2023-02-08T03:15:29.712Z,87.96
2023-02-08T03:18:06.782Z,86.84
2023-02-08T03:20:39.727Z,87.75
2023-02-08T03:23:13.172Z,87.15
2023-02-08T03:25:51.028Z,85.46
2023-02-08T03:28:24.962Z,86.01
2023-02-08T03:31:00.616Z,89.53
2023-02-08T03:33:34.130Z,94.62
2023-02-08T03:36:07.173Z,96.49
2023-02-08T03:38:38.525Z,95.63
2023-02-08T03:41:10.290Z,90.13
2023-02-08T03:43:42.026Z,90.33
2023-02-08T03:46:13.124Z,89.93
2023-02-08T03:48:46.820Z,89.92
2023-02-08T03:51:17.825Z,88.47
2023-02-08T03:53:47.842Z,86.44
2023-02-08T03:56:20.976Z,86.38
2023-02-08T03:58:53.100Z,84.90
2023-02-08T04:01:25.935Z,84.83
2023-02-08T04:03:54.567Z,85.99
2023-02-08T04:06:24.116Z,86.63
2023-02-08T04:08:51.706Z,85.26
2023-02-08T04:11:19.295Z,84.98
2023-02-08T04:13:47.202Z,84.14
2023-02-08T04:16:15.029Z,83.44
2023-02-08T04:18:42.953Z,86.47
2023-02-08T04:21:10.404Z,85.63
2023-02-08T04:23:39.347Z,84.50
2023-02-08T04:26:07.579Z,84.78
2023-02-08T04:28:35.388Z,84.61
2023-02-08T04:31:03.021Z,84.44
2023-02-08T04:33:30.538Z,85.37
2023-02-08T04:35:57.997Z,85.87
2023-02-08T04:38:25.602Z,87.43
2023-02-08T04:40:54.435Z,85.87
2023-02-08T04:43:21.960Z,85.07
2023-02-08T04:45:51.044Z,83.72
2023-02-08T04:48:18.773Z,82.81
2023-02-08T04:50:47.358Z,83.17
2023-02-08T04:53:14.933Z,83.04
2023-02-08T04:55:42.425Z,83.17
2023-02-08T04:58:11.216Z,83.31
2023-02-08T05:00:39.084Z,84.92
2023-02-08T05:03:06.893Z,84.75
2023-02-08T05:05:34.400Z,83.48
2023-02-08T05:08:01.918Z,83.06
2023-02-08T05:10:29.654Z,84.14
2023-02-08T05:12:57.114Z,86.20
2023-02-08T05:15:25.951Z,89.29
2023-02-08T05:17:53.438Z,88.14
2023-02-08T05:20:21.542Z,86.15
2023-02-08T05:22:49.025Z,84.92
2023-02-08T05:25:17.960Z,85.20
2023-02-08T05:27:45.711Z,85.69
2023-02-08T05:30:13.622Z,85.23
2023-02-08T05:32:42.405Z,86.99
2023-02-08T05:35:10.480Z,85.50
2023-02-08T05:37:37.970Z,87.99
2023-02-08T05:40:06.052Z,90.55
2023-02-08T05:42:33.500Z,94.63
2023-02-08T05:45:00.940Z,94.99
2023-02-08T05:47:28.392Z,96.85
2023-02-08T05:49:57.159Z,92.78
2023-02-08T05:52:24.621Z,90.29
2023-02-08T05:54:52.061Z,89.55
2023-02-08T05:57:19.560Z,94.64
2023-02-08T05:59:47.050Z,96.78
2023-02-08T06:02:14.517Z,98.61
2023-02-08T06:04:41.969Z,100.00
2023-02-08T06:07:10.748Z,100.00
2023-02-08T06:09:38.215Z,100.00
2023-02-08T06:12:06.104Z,100.00
2023-02-08T06:14:33.590Z,93.76
2023-02-08T06:17:01.187Z,97.84
2023-02-08T06:19:28.659Z,94.73
2023-02-08T06:21:56.141Z,91.08
2023-02-08T06:24:25.300Z,90.54
2023-02-08T06:26:52.782Z,88.18
2023-02-08T06:29:20.338Z,87.37
2023-02-08T06:31:48.135Z,92.74
2023-02-08T06:34:15.653Z,90.83
2023-02-08T06:36:43.121Z,87.34
2023-02-08T06:39:10.560Z,91.16
2023-02-08T06:41:39.371Z,92.69
2023-02-08T06:44:07.177Z,90.44
2023-02-08T06:46:34.691Z,91.83
2023-02-08T06:49:02.171Z,98.40
2023-02-08T06:51:29.650Z,97.81
2023-02-08T06:53:57.126Z,93.58
2023-02-08T06:56:24.567Z,93.32
2023-02-08T06:58:53.349Z,94.00
2023-02-08T07:01:20.843Z,99.94
2023-02-08T07:03:48.365Z,99.88
2023-02-08T07:06:17.600Z,95.62
2023-02-08T07:08:45.454Z,93.77
2023-02-08T07:11:16.220Z,98.69
2023-02-08T07:13:43.998Z,94.97
2023-02-08T07:16:12.773Z,97.38
2023-02-08T07:18:40.281Z,98.07
2023-02-08T07:21:08.276Z,100.00
2023-02-08T07:23:35.750Z,100.00
2023-02-08T07:26:05.610Z,100.00
2023-02-08T07:28:33.675Z,100.00
2023-02-08T07:31:01.341Z,100.00
2023-02-08T07:33:30.173Z,100.00
2023-02-08T07:35:57.658Z,100.00
2023-02-08T07:38:25.129Z,100.00
2023-02-08T07:40:52.592Z,100.00
2023-02-08T07:43:20.048Z,100.00
2023-02-08T07:45:47.499Z,100.00
2023-02-08T07:48:14.925Z,100.00
2023-02-08T07:50:43.708Z,100.00
2023-02-08T07:53:11.152Z,100.00
2023-02-08T07:55:38.616Z,100.00
2023-02-08T07:58:06.091Z,100.00
2023-02-08T08:00:33.564Z,100.00
2023-02-08T08:03:01.437Z,100.00
2023-02-08T08:05:28.915Z,100.00
2023-02-08T08:07:57.702Z,100.00
2023-02-08T08:10:25.166Z,100.00
2023-02-08T08:12:52.621Z,100.00
2023-02-08T08:15:20.416Z,100.00
2023-02-08T08:17:47.887Z,100.00
2023-02-08T08:20:15.344Z,97.97
2023-02-08T08:22:42.858Z,90.57
2023-02-08T08:25:11.684Z,88.57
2023-02-08T08:27:40.982Z,82.50
2023-02-08T08:30:09.893Z,75.67
2023-02-08T08:32:38.782Z,79.65
2023-02-08T08:35:07.792Z,79.89
2023-02-08T08:37:36.476Z,79.97
2023-02-08T08:40:06.620Z,78.39
2023-02-08T08:42:36.201Z,83.63
2023-02-08T08:45:04.475Z,81.76
2023-02-08T08:47:32.360Z,77.13
2023-02-08T08:49:59.822Z,78.62
2023-02-08T08:52:27.300Z,77.04
2023-02-08T08:54:54.757Z,78.03
2023-02-08T08:57:22.244Z,76.97
2023-02-08T08:59:51.059Z,75.67
2023-02-08T09:02:18.529Z,73.44
2023-02-08T09:04:46.015Z,73.19
2023-02-08T09:07:13.473Z,69.11
2023-02-08T09:09:41.370Z,67.97
2023-02-08T09:12:09.176Z,65.88
2023-02-08T09:14:36.983Z,61.58
2023-02-08T09:17:06.003Z,59.78
2023-02-08T09:19:33.463Z,58.22
2023-02-08T09:22:00.939Z,56.55
2023-02-08T09:24:28.474Z,55.36
2023-02-08T09:26:55.929Z,55.90
2023-02-08T09:29:23.375Z,56.86
2023-02-08T09:31:51.977Z,55.52
2023-02-08T09:34:20.809Z,54.98
2023-02-08T09:36:48.585Z,55.93
2023-02-08T09:39:18.645Z,55.43
2023-02-08T09:42:09.702Z,54.55
2023-02-08T09:44:50.794Z,54.67
2023-02-08T09:47:22.429Z,55.32
2023-02-08T09:49:58.815Z,56.26
2023-02-08T09:52:34.032Z,57.68
2023-02-08T09:55:11.073Z,57.32
2023-02-08T09:57:40.203Z,56.95
2023-02-08T10:00:13.805Z,56.29
2023-02-08T10:02:45.031Z,57.05
2023-02-08T10:05:16.635Z,58.56
2023-02-08T10:07:44.413Z,59.26
2023-02-08T10:10:16.223Z,58.46
2023-02-08T10:12:52.056Z,56.56
2023-02-08T10:15:32.477Z,58.44
2023-02-08T10:18:18.822Z,61.27
2023-02-08T10:21:15.676Z,59.98
2023-02-08T10:23:59.499Z,58.67
2023-02-08T10:26:35.129Z,58.54
2023-02-08T10:29:27.363Z,57.85
2023-02-08T10:32:20.488Z,57.33
2023-02-08T10:34:51.205Z,53.94
2023-02-08T10:37:22.215Z,52.02
2023-02-08T10:39:51.508Z,50.92
2023-02-08T10:42:23.173Z,50.54
2023-02-08T10:44:58.689Z,50.95
2023-02-08T10:47:39.942Z,51.51
2023-02-08T10:50:13.222Z,49.85
2023-02-08T10:52:42.081Z,49.32
2023-02-08T10:55:15.971Z,49.74
2023-02-08T10:57:44.703Z,48.63
2023-02-08T11:00:19.034Z,47.54
2023-02-08T11:02:49.165Z,46.41
2023-02-08T11:05:20.070Z,46.42
2023-02-08T11:07:48.882Z,47.25
2023-02-08T11:10:25.101Z,46.54
2023-02-08T11:12:58.531Z,49.30
2023-02-08T11:15:30.055Z,48.10
2023-02-08T11:18:00.510Z,49.03
2023-02-08T11:20:34.674Z,50.48
2023-02-08T11:23:03.955Z,50.50
2023-02-08T11:25:35.934Z,50.91
2023-02-08T11:28:04.379Z,49.19
2023-02-08T11:30:33.379Z,48.98
2023-02-08T11:33:19.727Z,49.80
2023-02-08T11:36:00.407Z,47.66
2023-02-08T11:38:30.281Z,49.25
2023-02-08T11:41:00.310Z,47.50
2023-02-08T11:43:30.605Z,49.90
2023-02-08T11:46:00.206Z,48.27
2023-02-08T11:48:38.841Z,48.17
2023-02-08T11:51:07.525Z,45.78
2023-02-08T11:53:40.613Z,47.22
2023-02-08T11:56:16.932Z,47.17
2023-02-08T11:58:57.116Z,46.34
2023-02-08T12:01:29.338Z,45.78
2023-02-08T12:03:59.409Z,44.95
2023-02-08T12:06:44.972Z,43.81
2023-02-08T12:09:24.130Z,44.85
2023-02-08T12:12:03.614Z,44.43
2023-02-08T12:14:47.401Z,46.29
2023-02-08T12:17:43.582Z,45.99
2023-02-08T12:20:37.073Z,45.99
2023-02-08T12:23:32.352Z,46.24
2023-02-08T12:26:10.873Z,47.32
2023-02-08T12:28:51.788Z,46.02
2023-02-08T12:31:28.473Z,47.74
2023-02-08T12:34:07.476Z,48.19
2023-02-08T12:37:16.343Z,47.76
2023-02-08T12:40:11.296Z,47.58
2023-02-08T12:42:57.115Z,47.55
2023-02-08T12:45:44.979Z,46.53
2023-02-08T12:48:25.566Z,48.09
2023-02-08T12:51:01.125Z,45.79
2023-02-08T12:53:34.353Z,45.99
2023-02-08T12:56:06.410Z,46.12
2023-02-08T12:58:41.379Z,47.00
2023-02-08T13:01:14.989Z,47.47
2023-02-08T13:03:49.194Z,45.50
2023-02-08T13:06:22.045Z,44.40
2023-02-08T13:08:55.050Z,44.20
2023-02-08T13:11:31.237Z,43.46
2023-02-08T13:14:05.635Z,43.79
2023-02-08T13:16:39.360Z,43.66
2023-02-08T13:19:25.296Z,43.63
2023-02-08T13:21:54.327Z,44.79
2023-02-08T13:24:29.759Z,43.44
2023-02-08T13:26:57.271Z,43.60
2023-02-08T13:29:28.322Z,42.86
2023-02-08T13:32:01.388Z,41.09
2023-02-08T13:34:34.406Z,40.83
2023-02-08T13:37:08.876Z,40.46
2023-02-08T13:39:43.247Z,40.75
2023-02-08T13:42:22.827Z,41.97
2023-02-08T13:44:55.014Z,43.11
2023-02-08T13:47:26.652Z,44.47
2023-02-08T13:49:59.914Z,45.51
2023-02-08T13:52:50.655Z,45.50
2023-02-08T13:55:41.992Z,44.76
2023-02-08T13:58:37.301Z,44.58
2023-02-08T14:01:17.854Z,45.20
2023-02-08T14:03:45.835Z,46.18
2023-02-08T14:06:21.459Z,48.39
2023-02-08T14:08:56.052Z,47.60
2023-02-08T14:11:37.343Z,46.01
2023-02-08T14:14:13.883Z,45.40
2023-02-08T14:16:44.360Z,45.14
2023-02-08T14:19:24.116Z,48.19
2023-02-08T14:22:02.351Z,50.68
2023-02-08T14:24:34.206Z,52.02
2023-02-08T14:27:11.687Z,54.09
2023-02-08T14:29:39.467Z,53.86
2023-02-08T14:32:08.496Z,53.32
2023-02-08T14:34:40.764Z,54.58
2023-02-08T14:37:28.809Z,56.06
2023-02-08T14:40:29.890Z,55.89
2023-02-08T14:42:59.382Z,55.75
2023-02-08T14:45:30.943Z,56.56
2023-02-08T14:48:06.246Z,57.07
2023-02-08T14:50:40.090Z,57.64
2023-02-08T14:53:24.450Z,58.16
2023-02-08T14:55:57.381Z,58.43
2023-02-08T14:58:35.119Z,57.59
2023-02-08T15:01:07.747Z,58.59
2023-02-08T15:03:37.326Z,57.96
2023-02-08T15:06:31.867Z,58.47
2023-02-08T15:08:59.631Z,57.44
2023-02-08T15:11:32.004Z,57.22
2023-02-08T15:14:02.327Z,57.73
2023-02-08T15:16:34.974Z,58.41
2023-02-08T15:19:05.649Z,60.26
2023-02-08T15:21:36.574Z,60.23
2023-02-08T15:24:07.741Z,59.84
2023-02-08T15:26:35.763Z,60.29
2023-02-08T15:29:03.476Z,59.47
2023-02-08T15:31:34.759Z,58.32
2023-02-08T15:34:04.466Z,58.12
2023-02-08T15:36:34.748Z,58.35
2023-02-08T15:39:10.482Z,58.82
2023-02-08T15:41:38.704Z,59.77
2023-02-08T15:44:18.344Z,58.31
2023-02-08T15:46:47.441Z,58.98
2023-02-08T15:49:18.355Z,59.87
2023-02-08T15:51:47.469Z,60.37
2023-02-08T15:54:17.596Z,60.66
2023-02-08T15:56:51.135Z,61.56
2023-02-08T15:59:23.026Z,60.89
2023-02-08T16:01:51.971Z,63.48
2023-02-08T16:04:21.151Z,65.53
2023-02-08T16:06:51.640Z,66.24
2023-02-08T16:09:21.728Z,65.56
2023-02-08T16:11:51.022Z,67.20
2023-02-08T16:14:24.787Z,67.38
2023-02-08T16:16:57.217Z,66.78
2023-02-08T16:19:29.319Z,66.73
2023-02-08T16:21:58.746Z,68.98
2023-02-08T16:24:28.545Z,70.39
2023-02-08T16:27:04.248Z,71.40
2023-02-08T16:29:34.280Z,72.52
2023-02-08T16:32:11.060Z,73.47
2023-02-08T16:34:42.265Z,75.20
2023-02-08T16:37:26.902Z,76.84
2023-02-08T16:39:56.956Z,76.67
2023-02-08T16:42:29.235Z,76.60
2023-02-08T16:45:14.909Z,78.68
2023-02-08T16:47:44.783Z,79.63
2023-02-08T16:50:16.608Z,79.90
2023-02-08T16:52:44.220Z,80.05
2023-02-08T16:55:23.518Z,82.02
2023-02-08T16:57:53.401Z,84.16
2023-02-08T17:00:25.381Z,84.94
2023-02-08T17:02:54.181Z,86.95
2023-02-08T17:05:25.381Z,88.97
2023-02-08T17:07:53.449Z,90.33
2023-02-08T17:10:27.653Z,90.75
2023-02-08T17:13:09.932Z,91.01
2023-02-08T17:15:44.640Z,91.34
2023-02-08T17:18:13.354Z,92.52
2023-02-08T17:20:42.567Z,93.88
2023-02-08T17:23:11.302Z,94.37
2023-02-08T17:25:39.293Z,94.67
2023-02-08T17:28:09.026Z,95.65
2023-02-08T17:30:39.251Z,95.22
2023-02-08T17:33:07.585Z,95.98
2023-02-08T17:35:37.585Z,98.20
2023-02-08T17:38:07.100Z,99.32
2023-02-08T17:40:37.288Z,97.87
2023-02-08T17:43:06.199Z,97.52
2023-02-08T17:45:37.903Z,98.12
2023-02-08T17:48:05.798Z,99.33
2023-02-08T17:50:33.340Z,100.00
2023-02-08T17:53:00.812Z,100.00
2023-02-08T17:55:29.677Z,100.00
2023-02-08T17:57:57.175Z,100.00
2023-02-08T18:00:25.292Z,100.00
2023-02-08T18:02:54.587Z,100.00
2023-02-08T18:05:24.242Z,100.00
2023-02-08T18:07:52.546Z,100.00
2023-02-08T18:10:20.757Z,100.00
2023-02-08T18:12:49.566Z,100.00
2023-02-08T18:15:20.217Z,100.00
2023-02-08T18:17:48.028Z,100.00
2023-02-08T18:20:16.674Z,100.00
2023-02-08T18:22:45.087Z,100.00
2023-02-08T18:25:13.947Z,100.00
2023-02-08T18:27:41.921Z,100.00
2023-02-08T18:30:12.468Z,100.00
2023-02-08T18:32:40.283Z,100.00
2023-02-08T18:35:09.567Z,100.00
2023-02-08T18:37:38.160Z,100.00
2023-02-08T18:40:07.258Z,100.00
2023-02-08T18:42:36.214Z,100.00
2023-02-08T18:45:04.525Z,100.00
2023-02-08T18:47:33.484Z,100.00
2023-02-08T18:50:00.936Z,100.00
2023-02-08T18:52:29.583Z,100.00
2023-02-08T18:54:59.601Z,100.00
2023-02-08T18:57:27.251Z,100.00
2023-02-08T18:59:55.836Z,100.00
2023-02-08T19:02:26.211Z,100.00
2023-02-08T19:04:55.166Z,100.00
2023-02-08T19:07:22.795Z,100.00
2023-02-08T19:09:50.282Z,100.00
2023-02-08T19:12:18.935Z,100.00
2023-02-08T19:14:50.464Z,100.00
2023-02-08T19:17:18.218Z,100.00
2023-02-08T19:19:45.919Z,100.00
2023-02-08T19:22:14.940Z,100.00
2023-02-08T19:24:42.431Z,100.00
2023-02-08T19:27:09.994Z,100.00
2023-02-08T19:29:37.526Z,100.00
2023-02-08T19:32:05.145Z,100.00
2023-02-08T19:34:32.622Z,100.00
2023-02-08T19:37:00.191Z,100.00
2023-02-08T19:39:29.190Z,100.00
2023-02-08T19:41:58.509Z,100.00
2023-02-08T19:44:28.321Z,100.00
2023-02-08T19:46:57.449Z,100.00
2023-02-08T19:49:27.187Z,100.00
2023-02-08T19:51:55.465Z,100.00
2023-02-08T19:54:23.188Z,100.00
2023-02-08T19:56:54.498Z,100.00
2023-02-08T19:59:24.559Z,100.00
2023-02-08T20:01:52.656Z,100.00
2023-02-08T20:04:20.403Z,100.00
2023-02-08T20:06:51.865Z,100.00
2023-02-08T20:09:19.393Z,100.00
2023-02-08T20:12:02.281Z,100.00
2023-02-08T20:14:33.777Z,96.86
2023-02-08T20:17:01.917Z,95.84
2023-02-08T20:19:29.582Z,94.31
2023-02-08T20:21:57.050Z,93.76
2023-02-08T20:24:24.541Z,89.86
2023-02-08T20:26:52.060Z,90.20
2023-02-08T20:29:19.775Z,91.65
2023-02-08T20:31:52.009Z,91.81
2023-02-08T20:34:19.611Z,87.27
2023-02-08T20:37:05.298Z,93.04
2023-02-08T20:39:34.424Z,93.99
2023-02-08T20:42:01.936Z,97.11
2023-02-08T20:44:29.476Z,95.64
2023-02-08T20:46:58.277Z,95.34
2023-02-08T20:49:26.812Z,93.22
2023-02-08T20:51:54.819Z,91.43
2023-02-08T20:54:24.531Z,91.73
2023-02-08T20:56:52.827Z,85.70
2023-02-08T20:59:20.424Z,83.23
2023-02-08T21:01:48.038Z,79.53
2023-02-08T21:04:19.692Z,79.72
2023-02-08T21:06:47.153Z,76.82
2023-02-08T21:09:17.265Z,76.71
2023-02-08T21:11:45.677Z,77.12
2023-02-08T21:14:18.541Z,77.72
2023-02-08T21:16:47.705Z,83.19
2023-02-08T21:19:17.178Z,78.91
2023-02-08T21:21:44.731Z,77.47
2023-02-08T21:24:12.379Z,78.98
2023-02-08T21:26:39.866Z,80.54
2023-02-08T21:29:08.129Z,80.88
2023-02-08T21:31:36.714Z,84.07
2023-02-08T21:34:04.918Z,85.99
2023-02-08T21:36:34.459Z,90.74
2023-02-08T21:39:01.999Z,88.22
2023-02-08T21:41:31.909Z,89.60
2023-02-08T21:44:02.200Z,89.81
2023-02-08T21:46:30.184Z,85.57
2023-02-08T21:49:16.589Z,84.09
2023-02-08T21:52:03.513Z,84.34
2023-02-08T21:54:42.232Z,83.13
2023-02-08T21:57:12.332Z,79.22
2023-02-08T21:59:39.980Z,78.46
2023-02-08T22:02:08.873Z,79.22
2023-02-08T22:04:55.072Z,78.31
2023-02-08T22:07:24.714Z,75.91
2023-02-08T22:09:52.696Z,73.59
2023-02-08T22:12:22.349Z,73.72
2023-02-08T22:14:51.025Z,76.66
2023-02-08T22:17:19.220Z,74.83
2023-02-08T22:19:46.874Z,75.50
2023-02-08T22:22:14.496Z,76.41
2023-02-08T22:24:43.470Z,77.58
2023-02-08T22:27:11.673Z,78.94
2023-02-08T22:29:39.158Z,79.93
2023-02-08T22:32:07.399Z,77.83
2023-02-08T22:34:34.917Z,79.16
2023-02-08T22:37:04.035Z,79.06
2023-02-08T22:39:32.915Z,78.13
2023-02-08T22:42:01.776Z,77.04
2023-02-08T22:44:29.324Z,75.41
2023-02-08T22:46:57.439Z,72.44
2023-02-08T22:49:24.965Z,72.45
2023-02-08T22:51:52.453Z,71.56
2023-02-08T22:54:19.940Z,74.05
2023-02-08T22:56:47.442Z,76.50
2023-02-08T22:59:16.339Z,78.44
2023-02-08T23:01:43.895Z,82.48
2023-02-08T23:04:11.597Z,80.27
2023-02-08T23:06:39.215Z,84.00
2023-02-08T23:09:07.975Z,91.54
2023-02-08T23:11:35.738Z,97.43
2023-02-08T23:14:03.246Z,100.00
2023-02-08T23:16:32.601Z,98.69
2023-02-08T23:19:00.145Z,96.30
2023-02-08T23:21:27.891Z,96.76
2023-02-08T23:23:55.382Z,91.83
2023-02-08T23:26:23.410Z,93.45
2023-02-08T23:28:52.209Z,96.08
2023-02-08T23:31:21.401Z,98.63
2023-02-08T23:33:50.688Z,100.00
2023-02-08T23:36:20.780Z,100.00
2023-02-08T23:38:49.155Z,100.00
2023-02-08T23:41:18.990Z,100.00
2023-02-08T23:43:46.480Z,100.00
2023-02-08T23:46:17.215Z,100.00
2023-02-08T23:48:47.541Z,100.00
2023-02-08T23:51:18.481Z,100.00
2023-02-08T23:53:46.484Z,100.00
2023-02-08T23:56:16.704Z,100.00
2023-02-08T23:58:45.706Z,100.00
